»·PEaware :: N688NX KSMF-KSNA

N688NX :: KSMF-KSNA

FLIGHT INFORMATION

Flight Status: Arrived
Operator: Privately registered:
United States
More flights under this callsign
Pilot: Anonymous 1753 (1753)
Aircraft: CANADAIR CL-600 CHALLENGER
(CL60)
More flights by this aircraft type
Origin: KSMF Sacramento Intl
United States
Destination: KSNA John Wayne-Orange Co
United States
More flights between these airports :: More routes between these airports
Route: FTHIL3 FRA REBRG OHSEA2
File this flight plan on PilotEdge
Remarks: RMK / SIMBRIEF
Altitude:
(Current/Filed)
35,000ft
Speed:
(Current/Filed)
454kts
Departed: 22-Nov-23 04:17 PM
Arrived: 22-Nov-23 05:20 PM
Distance/Time
Traveled:
351nm/1:03
Distance/Time
To Go:
Arrived

Flight Plot

Page will automatically refresh every two minutes.

Flight plan parsing failed; only flown route is shown


Map Options




Map Legend


Flown Route
Filed Route
Departure Airport
Arrival Airport
Navaid (VOR, NDB)
Fix

Horizontal Profiles

Position Reports

Time Latitude Longitude Heading Altitude Ground
Speed
22-Nov-23 15:40 38.681472 -121.596790 179 24ft 0kts
22-Nov-23 15:41 38.681472 -121.596790 179 24ft 0kts
22-Nov-23 15:42 38.681472 -121.596790 179 24ft 0kts
22-Nov-23 15:43 38.681472 -121.596790 179 24ft 0kts
22-Nov-23 15:44 38.681472 -121.596790 179 24ft 0kts
22-Nov-23 15:45 38.681472 -121.596790 179 24ft 0kts
22-Nov-23 15:46 38.681472 -121.596790 179 24ft 0kts
22-Nov-23 15:47 38.681472 -121.596790 179 24ft 0kts
22-Nov-23 15:48 38.681472 -121.596790 179 24ft 0kts
22-Nov-23 15:49 38.681472 -121.596790 179 24ft 0kts
22-Nov-23 15:50 38.681472 -121.596790 179 24ft 0kts
22-Nov-23 15:51 38.681472 -121.596790 179 24ft 0kts
22-Nov-23 15:52 38.681472 -121.596790 179 24ft 0kts
22-Nov-23 15:53 38.681472 -121.596790 179 24ft 0kts
22-Nov-23 15:54 38.681472 -121.596790 179 24ft 0kts
22-Nov-23 15:55 38.681472 -121.596790 179 24ft 0kts
22-Nov-23 15:56 38.681472 -121.596790 179 24ft 0kts
22-Nov-23 15:57 38.681472 -121.596790 179 24ft 0kts
22-Nov-23 15:58 38.681472 -121.596790 179 24ft 0kts
22-Nov-23 15:59 38.681472 -121.596790 179 24ft 0kts
22-Nov-23 16:00 38.681472 -121.596790 179 24ft 0kts
22-Nov-23 16:01 38.681472 -121.596790 179 24ft 0kts
22-Nov-23 16:02 38.681472 -121.596790 179 24ft 0kts
22-Nov-23 16:03 38.681472 -121.596790 179 24ft 0kts
22-Nov-23 16:04 38.681472 -121.596790 179 24ft 0kts
22-Nov-23 16:05 38.681472 -121.596790 179 24ft 0kts
22-Nov-23 16:06 38.681472 -121.596790 179 24ft 0kts
22-Nov-23 16:07 38.681472 -121.596790 179 24ft 0kts
22-Nov-23 16:08 38.681472 -121.596790 179 24ft 0kts
22-Nov-23 16:09 38.681472 -121.596790 179 24ft 0kts
22-Nov-23 16:10 38.681432 -121.597678 287 24ft 8kts
22-Nov-23 16:11 38.684324 -121.598827 1 24ft 23kts
22-Nov-23 16:12 38.692698 -121.598687 0 27ft 33kts
22-Nov-23 16:13 38.701859 -121.598540 0 27ft 24kts
22-Nov-23 16:14 38.707186 -121.599518 271 27ft 4kts
22-Nov-23 16:15 38.707205 -121.599936 274 27ft 6kts
22-Nov-23 16:16 38.705507 -121.601080 181 27ft 67kts
22-Nov-23 16:17 38.657801 -121.587546 133 3434ft 232kts
22-Nov-23 16:18 38.616597 -121.513612 119 8351ft 287kts
22-Nov-23 16:19 38.572499 -121.426855 123 9168ft 297kts
22-Nov-23 16:20 38.526585 -121.336642 123 10364ft 326kts
22-Nov-23 16:21 38.477549 -121.239307 126 15827ft 335kts
22-Nov-23 16:22 38.425164 -121.136016 127 19885ft 359kts
22-Nov-23 16:23 38.369781 -121.026944 128 23553ft 374kts
22-Nov-23 16:24 38.312976 -120.915540 128 27123ft 379kts
22-Nov-23 16:25 38.254218 -120.800552 128 29716ft 398kts
22-Nov-23 16:26 38.192111 -120.679482 128 31900ft 417kts
22-Nov-23 16:27 38.127603 -120.554406 128 33815ft 431kts
22-Nov-23 16:28 38.059125 -120.422307 129 35137ft 449kts
22-Nov-23 16:29 37.985175 -120.289243 130 35251ft 481kts
22-Nov-23 16:30 37.884204 -120.174255 155 35278ft 493kts
22-Nov-23 16:31 37.765294 -120.084646 155 35266ft 499kts
22-Nov-23 16:32 37.646449 -119.995791 155 35280ft 498kts
22-Nov-23 16:33 37.526199 -119.906443 156 35287ft 501kts
22-Nov-23 16:34 37.405920 -119.817588 155 35327ft 502kts
22-Nov-23 16:35 37.284420 -119.728221 155 35285ft 503kts
22-Nov-23 16:36 37.162630 -119.639993 159 35303ft 499kts
22-Nov-23 16:37 37.031586 -119.605931 187 35307ft 472kts
22-Nov-23 16:38 36.899536 -119.604870 187 35337ft 473kts
22-Nov-23 16:39 36.766848 -119.605146 188 35326ft 474kts
22-Nov-23 16:40 36.634292 -119.606218 188 35357ft 476kts
22-Nov-23 16:41 36.501044 -119.607797 189 35365ft 478kts
22-Nov-23 16:42 36.367527 -119.609605 189 35365ft 478kts
22-Nov-23 16:43 36.234031 -119.611630 189 35407ft 478kts
22-Nov-23 16:44 36.099576 -119.613736 189 35416ft 481kts
22-Nov-23 16:45 35.965674 -119.617838 196 35440ft 472kts
22-Nov-23 16:46 35.835158 -119.644477 198 35429ft 472kts
22-Nov-23 16:47 35.703828 -119.668903 191 35415ft 483kts
22-Nov-23 16:48 35.567859 -119.635319 163 35411ft 516kts
22-Nov-23 16:49 35.436767 -119.561609 162 35465ft 519kts
22-Nov-23 16:50 35.304433 -119.487740 162 35450ft 521kts
22-Nov-23 16:51 35.171675 -119.414346 161 35448ft 522kts
22-Nov-23 16:52 35.038269 -119.341079 162 35448ft 523kts
22-Nov-23 16:53 34.904955 -119.268253 162 35454ft 522kts
22-Nov-23 16:54 34.779463 -119.199945 162 35448ft 503kts
22-Nov-23 16:55 34.654207 -119.125177 157 33564ft 493kts
22-Nov-23 16:56 34.532610 -119.046887 156 30982ft 493kts
22-Nov-23 16:57 34.413922 -118.969116 155 28388ft 474kts
22-Nov-23 16:58 34.300849 -118.893924 154 25923ft 447kts
22-Nov-23 16:59 34.192445 -118.829440 165 23558ft 408kts
22-Nov-23 17:00 34.089432 -118.790468 164 21576ft 366kts
22-Nov-23 17:01 33.993298 -118.753433 164 19618ft 356kts
22-Nov-23 17:02 33.899636 -118.717283 163 17668ft 344kts
22-Nov-23 17:03 33.809623 -118.682524 163 15817ft 326kts
22-Nov-23 17:04 33.720369 -118.648891 164 14000ft 334kts
22-Nov-23 17:05 33.653651 -118.587390 91 12064ft 316kts
22-Nov-23 17:06 33.662687 -118.485314 81 10130ft 299kts
22-Nov-23 17:07 33.672330 -118.387729 81 8067ft 286kts
22-Nov-23 17:08 33.682523 -118.293272 81 5850ft 274kts
22-Nov-23 17:09 33.692125 -118.208423 81 5207ft 249kts
22-Nov-23 17:10 33.702200 -118.121092 81 5165ft 263kts
22-Nov-23 17:11 33.727322 -118.046438 51 5179ft 224kts
22-Nov-23 17:12 33.764497 -117.988610 51 4610ft 217kts
22-Nov-23 17:13 33.799634 -117.929392 63 3508ft 215kts
22-Nov-23 17:14 33.814519 -117.860333 81 2693ft 213kts
22-Nov-23 17:15 33.784570 -117.808953 160 2390ft 177kts
22-Nov-23 17:16 33.747909 -117.824173 208 1528ft 130kts
22-Nov-23 17:17 33.715878 -117.843514 209 956ft 126kts
22-Nov-23 17:18 33.684627 -117.863213 209 158ft 124kts
22-Nov-23 17:19 33.672233 -117.871684 253 54ft 0kts
22-Nov-23 17:20 33.672613 -117.873243 9 55ft 7kts
22-Nov-23 17:21 33.672693 -117.873202 29 55ft 0kts
22-Nov-23 17:22 33.672693 -117.873202 29 55ft 0kts

Navigation Log

Ident Type
Flight plan parsing failed, navigation log unavailable